Corona Ace — 3ELE3 — position and weather

sailwx.info

Track history (hours):
 
Tides and Currents Weather Stations Pressure Air Temp Water Temp Dewpoint Dewpoint Depression Visibility Wind Speed Wind Dir Waves Ship Positions

Corona Ace

Last reported at 2017-Sep-20 22:33 UTC. Time now 2017-Nov-24 02:21 UTC.
Position S 27°34' E 153°49'.
Warning: this ship's position is months out of date.

Length 229 m; draft 12.8 m.

Type: Cargo ship. MMSI: 357173000.

Date/timePositionNaut miles runAvg speedWind from/ knotsBaromVisibWave heightAir tempDewpointWater temp
2017-Sep-20 22:33S 27°34' E 153°49'114.5
2017-Sep-20 22:30S 27°35' E 153°49'714.1
2017-Sep-20 22:00S 27°41' E 153°49'713.5
2017-Sep-20 21:30S 27°48' E 153°49'713.5
2017-Sep-20 21:00S 27°55' E 153°49'713.1
2017-Sep-20 20:30S 28°02' E 153°48'613.0
2017-Sep-20 20:00S 28°08' E 153°48'713.0
2017-Sep-20 19:29S 28°15' E 153°47'612.8
2017-Sep-20 19:00S 28°21' E 153°47'612.5
2017-Sep-20 18:30S 28°27' E 153°47'24411.2
2017-Sep-19 20:40S 32°25' E 152°40'213.0
2017-Sep-19 20:30S 32°27' E 152°39'612.7
2017-Sep-19 20:00S 32°32' E 152°36'612.8
2017-Sep-19 19:30S 32°37' E 152°30'613.0
2017-Sep-19 19:00S 32°42' E 152°25'612.9
2017-Sep-19 18:30S 32°46' E 152°20'612.9
2017-Sep-19 18:00S 32°50' E 152°14'612.7
2017-Sep-19 17:30S 32°53' E 152°07'612.2
2017-Sep-19 17:00S 32°55' E 152°00'612.3
2017-Sep-19 16:30S 32°56' E 151°53'4 8.3
2017-Sep-19 16:00S 32°55' E 151°49'2 3.9
2017-Sep-19 15:30S 32°54' E 151°46'1 2.1
2017-Sep-19 14:57S 32°53' E 151°46'0 0.0
2017-Sep-19 14:27S 32°53' E 151°46'0 0.0
2017-Sep-19 13:57S 32°53' E 151°46'0 0.0
2017-Sep-19 13:27S 32°53' E 151°46'0 0.0
2017-Sep-19 12:57S 32°53' E 151°46'0 0.0
2017-Sep-19 12:30S 32°53' E 151°46'0 0.0
2017-Sep-19 12:00S 32°53' E 151°46'0 0.0
2017-Sep-19 11:30S 32°53' E 151°46'0 0.0
2017-Sep-19 10:57S 32°53' E 151°46'0 0.0
2017-Sep-19 10:24S 32°53' E 151°46'0 0.0
2017-Sep-19 10:00S 32°53' E 151°46'0 0.0
2017-Sep-19 09:30S 32°53' E 151°46'0 0.0
2017-Sep-19 09:00S 32°53' E 151°46'0 0.0
2017-Sep-19 08:21S 32°53' E 151°46'0 0.0
2017-Sep-19 08:00S 32°53' E 151°46'0 0.0
2017-Sep-19 07:27S 32°53' E 151°46'0 0.0
2017-Sep-19 07:00S 32°53' E 151°46'0 0.0
2017-Sep-19 06:30S 32°53' E 151°46'0 0.0
2017-Sep-19 05:15S 32°53' E 151°46'0 0.0
2017-Sep-19 04:57S 32°53' E 151°46'0 0.0
2017-Sep-19 04:30S 32°53' E 151°46'0 0.0
2017-Sep-19 03:57S 32°53' E 151°46'0 0.0
2017-Sep-19 03:30S 32°53' E 151°46'0 0.0
2017-Sep-19 02:57S 32°53' E 151°46'0 0.0
2017-Sep-19 02:30S 32°53' E 151°46'0 0.0
2017-Sep-19 02:00S 32°53' E 151°46'0 0.0
2017-Sep-19 01:30S 32°53' E 151°46'0 0.0
2017-Sep-19 01:00S 32°53' E 151°46'0 0.0
2017-Sep-19 00:30S 32°53' E 151°46'0 0.0
2017-Sep-19 00:00S 32°53' E 151°46'0 0.0
2017-Sep-18 23:31S 32°53' E 151°46'1 2.4
2017-Sep-18 23:00S 32°54' E 151°46'3 5.7
2017-Sep-18 22:31S 32°55' E 151°50'5 9.8
2017-Sep-18 22:01S 32°59' E 151°52'4 7.3
2017-Sep-18 21:31S 33°01' E 151°56'4 8.9
2017-Sep-18 21:00S 33°04' E 152°00'510.2
2017-Sep-18 20:31S 33°07' E 152°05'612.0
2017-Sep-18 20:01S 33°11' E 152°11'612.6
2017-Sep-18 19:30S 33°15' E 152°16'613.0
2017-Sep-18 19:01S 33°19' E 152°23'612.8
2017-Sep-18 18:31S 33°23' E 152°29'612.5
2017-Sep-18 18:01S 33°26' E 152°35'2 3.4
2017-Sep-18 17:31S 33°27' E 152°36'2 3.1
2017-Sep-18 17:01S 33°26' E 152°35'2 3.2
2017-Sep-18 16:31S 33°25' E 152°34'2 3.3
2017-Sep-18 16:01S 33°23' E 152°33'2 3.2
2017-Sep-18 15:31S 33°22' E 152°32'2 3.6
2017-Sep-18 15:01S 33°20' E 152°31'2 3.4
2017-Sep-18 14:30S 33°19' E 152°30'2 3.2
2017-Sep-18 14:01S 33°17' E 152°29'2 3.1
2017-Sep-18 13:30S 33°16' E 152°29'3 2.8
2017-Sep-18 12:34S 33°13' E 152°28'0 2.8
2017-Sep-18 12:31S 33°13' E 152°28'1 2.9
2017-Sep-18 12:00S 33°12' E 152°27'1 2.6
2017-Sep-18 11:26S 33°10' E 152°27'1 2.5
2017-Sep-18 10:56S 33°09' E 152°26'1 2.5
2017-Sep-18 10:26S 33°08' E 152°26'2 2.5
2017-Sep-18 09:38S 33°06' E 152°26'0 2.4
2017-Sep-18 09:26S 33°06' E 152°25'1 2.2
2017-Sep-18 08:56S 33°05' E 152°25'1 2.2
2017-Sep-18 08:20S 33°03' E 152°25'1 2.1
2017-Sep-18 07:59S 33°03' E 152°24'1 2.2
2017-Sep-18 07:30S 33°02' E 152°25'612.6
2017-Sep-18 07:00S 33°07' E 152°29'612.4
2017-Sep-18 06:30S 33°13' E 152°32'612.4
2017-Sep-18 06:00S 33°19' E 152°34'2 1.1
2017-Sep-18 04:10S 33°17' E 152°33'1 2.0
2017-Sep-18 03:46S 33°16' E 152°33'12 1.9
2017-Sep-17 21:22S 33°06' E 152°26'1 1.3
2017-Sep-17 20:52S 33°05' E 152°26'1 1.3
2017-Sep-17 20:28S 33°05' E 152°25'1 1.3
2017-Sep-17 19:58S 33°04' E 152°25'1 1.4
2017-Sep-17 19:28S 33°03' E 152°25'1 1.3
2017-Sep-17 18:55S 33°03' E 152°24'1 1.2
2017-Sep-17 18:28S 33°02' E 152°24'1 1.1
2017-Sep-17 17:58S 33°02' E 152°24'0 0.8
2017-Sep-17 17:28S 33°01' E 152°24'0 0.7
2017-Sep-17 16:58S 33°01' E 152°24'0 0.4
2017-Sep-17 16:28S 33°01' E 152°24'0 0.3
2017-Sep-17 15:58S 33°01' E 152°24'0 0.4
2017-Sep-17 15:28S 33°01' E 152°24'0 0.5
2017-Sep-17 14:58S 33°00' E 152°23'0 0.6
2017-Sep-17 14:28S 33°00' E 152°23'0 0.2
2017-Sep-17 13:58S 33°00' E 152°23'0 0.3
2017-Sep-17 13:28S 33°00' E 152°23'0 0.3
2017-Sep-17 12:58S 33°00' E 152°23'0 0.4
2017-Sep-17 12:28S 33°00' E 152°23'0 0.5
2017-Sep-17 11:58S 33°01' E 152°22'0 0.5
2017-Sep-17 11:28S 33°01' E 152°22'0 0.6
2017-Sep-17 10:55S 33°01' E 152°22'0 0.6
2017-Sep-17 10:28S 33°01' E 152°22'0 0.6
2017-Sep-17 09:43S 33°01' E 152°22'1 4.7
2017-Sep-17 09:30S 33°00' E 152°21'612.7
2017-Sep-17 09:00S 32°59' E 152°14'3 6.2
2017-Sep-17 08:28S 32°59' E 152°10'1 1.2
2017-Sep-17 07:58S 32°59' E 152°10'1 1.4
2017-Sep-17 07:28S 32°60' E 152°11'1 1.4
2017-Sep-17 06:58S 33°00' E 152°12'1 1.5
2017-Sep-17 06:28S 33°00' E 152°13'1 1.6
2017-Sep-17 05:58S 33°01' E 152°13'1 1.5
2017-Sep-17 05:28S 33°01' E 152°14'1 1.6
2017-Sep-17 04:58S 33°02' E 152°15'1 1.5
2017-Sep-17 04:28S 33°02' E 152°16'1 1.5
2017-Sep-17 03:59S 33°03' E 152°16'4 7.7
2017-Sep-17 03:30S 32°60' E 152°19'510.6
2017-Sep-17 03:00S 32°56' E 152°23'2 3.7
2017-Sep-17 02:30S 32°54' E 152°25'1 1.4
2017-Sep-17 02:00S 32°55' E 152°25'1 1.7
2017-Sep-17 01:30S 32°56' E 152°26'1 1.7
2017-Sep-17 01:00S 32°56' E 152°26'1 1.7
2017-Sep-17 00:30S 32°57' E 152°27'1 1.8
2017-Sep-17 00:00S 32°58' E 152°27'1 1.5
2017-Sep-16 23:30S 32°59' E 152°28'1 1.6
2017-Sep-16 23:00S 32°59' E 152°28'1 1.6
2017-Sep-16 22:30S 33°00' E 152°29'1 1.7
2017-Sep-16 21:57S 33°01' E 152°29'1 1.7
2017-Sep-16 21:30S 33°02' E 152°30'1 1.9
2017-Sep-16 21:00S 33°02' E 152°30'1 1.9
2017-Sep-16 20:30S 33°03' E 152°30'1 2.0
2017-Sep-16 20:00S 33°04' E 152°31'4 1.7
2017-Sep-16 17:22S 33°07' E 152°35'611.7
2017-Sep-16 16:50S 33°07' E 152°42'3 0.3
2017-Sep-16 04:32S 33°08' E 152°39'0 1.0
2017-Sep-16 04:20S 33°08' E 152°39'1 1.3
2017-Sep-16 03:50S 33°09' E 152°38'0 1.2
2017-Sep-16 03:29S 33°09' E 152°38'1 1.4
2017-Sep-16 02:59S 33°09' E 152°37'5 1.2
2017-Sep-15 23:15S 33°08' E 152°31'1 1.9
2017-Sep-15 22:57S 33°08' E 152°31'1 1.8
2017-Sep-15 22:27S 33°07' E 152°30'1 1.8
2017-Sep-15 22:00S 33°07' E 152°29'1 1.8
2017-Sep-15 21:27S 33°06' E 152°28'1 1.6
2017-Sep-15 21:00S 33°06' E 152°27'1 1.5
2017-Sep-15 20:30S 33°06' E 152°26'1 1.6
2017-Sep-15 19:45S 33°05' E 152°25'0 1.6
2017-Sep-15 19:27S 33°05' E 152°25'1 1.5
2017-Sep-15 18:57S 33°05' E 152°24'1 1.3
2017-Sep-15 18:24S 33°05' E 152°23'1 1.3
2017-Sep-15 18:00S 33°05' E 152°22'1 1.2
2017-Sep-15 17:21S 33°05' E 152°21'0 1.1
2017-Sep-15 17:00S 33°05' E 152°21'1 1.0
2017-Sep-15 16:30S 33°05' E 152°20'1 1.1
2017-Sep-15 15:57S 33°04' E 152°20'2 3.8
2017-Sep-15 15:30S 33°03' E 152°18'713.2
2017-Sep-15 15:00S 32°60' E 152°12'713.0
2017-Sep-15 14:30S 32°58' E 152°04'5 9.2
2017-Sep-15 14:00S 32°56' E 151°59'611.4
2017-Sep-15 13:30S 32°54' E 152°06'612.8
2017-Sep-15 13:00S 32°51' E 152°13'713.1
2017-Sep-15 12:30S 32°49' E 152°20'713.1
2017-Sep-15 12:00S 32°47' E 152°28'612.9
2017-Sep-15 11:30S 32°44' E 152°34'713.3
2017-Sep-15 11:00S 32°38' E 152°38'714.1
2017-Sep-15 10:30S 32°32' E 152°41'714.0
2017-Sep-15 10:01S 32°25' E 152°44'25812.7
2017-Sep-14 13:43S 28°13' E 153°47'313.4
2017-Sep-14 13:30S 28°10' E 153°48'713.1
2017-Sep-14 12:58S 28°03' E 153°48'613.6
2017-Sep-14 12:30S 27°56' E 153°48'714.1
2017-Sep-14 12:00S 27°49' E 153°48'714.0
2017-Sep-14 11:30S 27°42' E 153°48'713.1
2017-Sep-14 11:00S 27°36' E 153°50'713.2
2017-Sep-14 10:30S 27°31' E 153°55'2911.9
2017-Sep-14 08:05S 27°02' E 153°53'  
Track history (hours):
 
Tides and Currents Weather Stations Pressure Air Temp Water Temp Dewpoint Dewpoint Depression Visibility Wind Speed Wind Dir Waves Ship Positions

Corona Ace

Last reported at 2017-Sep-20 22:33 UTC. Time now 2017-Nov-24 02:21 UTC.
Position S 27°34' E 153°49'.
Warning: this ship's position is months out of date.

Length 229 m; draft 12.8 m.

Type: Cargo ship. MMSI: 357173000.

Date/timePositionNaut miles runAvg speedWind from/ knotsBaromVisibWave heightAir tempDewpointWater temp
2017-Sep-20 22:33S 27°34' E 153°49'114.5
2017-Sep-20 22:30S 27°35' E 153°49'714.1
2017-Sep-20 22:00S 27°41' E 153°49'713.5
2017-Sep-20 21:30S 27°48' E 153°49'713.5
2017-Sep-20 21:00S 27°55' E 153°49'713.1
2017-Sep-20 20:30S 28°02' E 153°48'613.0
2017-Sep-20 20:00S 28°08' E 153°48'713.0
2017-Sep-20 19:29S 28°15' E 153°47'612.8
2017-Sep-20 19:00S 28°21' E 153°47'612.5
2017-Sep-20 18:30S 28°27' E 153°47'24411.2
2017-Sep-19 20:40S 32°25' E 152°40'213.0
2017-Sep-19 20:30S 32°27' E 152°39'612.7
2017-Sep-19 20:00S 32°32' E 152°36'612.8
2017-Sep-19 19:30S 32°37' E 152°30'613.0
2017-Sep-19 19:00S 32°42' E 152°25'612.9
2017-Sep-19 18:30S 32°46' E 152°20'612.9
2017-Sep-19 18:00S 32°50' E 152°14'612.7
2017-Sep-19 17:30S 32°53' E 152°07'612.2
2017-Sep-19 17:00S 32°55' E 152°00'612.3
2017-Sep-19 16:30S 32°56' E 151°53'4 8.3
2017-Sep-19 16:00S 32°55' E 151°49'2 3.9
2017-Sep-19 15:30S 32°54' E 151°46'1 2.1
2017-Sep-19 14:57S 32°53' E 151°46'0 0.0
2017-Sep-19 14:27S 32°53' E 151°46'0 0.0
2017-Sep-19 13:57S 32°53' E 151°46'0 0.0
2017-Sep-19 13:27S 32°53' E 151°46'0 0.0
2017-Sep-19 12:57S 32°53' E 151°46'0 0.0
2017-Sep-19 12:30S 32°53' E 151°46'0 0.0
2017-Sep-19 12:00S 32°53' E 151°46'0 0.0
2017-Sep-19 11:30S 32°53' E 151°46'0 0.0
2017-Sep-19 10:57S 32°53' E 151°46'0 0.0
2017-Sep-19 10:24S 32°53' E 151°46'0 0.0
2017-Sep-19 10:00S 32°53' E 151°46'0 0.0
2017-Sep-19 09:30S 32°53' E 151°46'0 0.0
2017-Sep-19 09:00S 32°53' E 151°46'0 0.0
2017-Sep-19 08:21S 32°53' E 151°46'0 0.0
2017-Sep-19 08:00S 32°53' E 151°46'0 0.0
2017-Sep-19 07:27S 32°53' E 151°46'0 0.0
2017-Sep-19 07:00S 32°53' E 151°46'0 0.0
2017-Sep-19 06:30S 32°53' E 151°46'0 0.0
2017-Sep-19 05:15S 32°53' E 151°46'0 0.0
2017-Sep-19 04:57S 32°53' E 151°46'0 0.0
2017-Sep-19 04:30S 32°53' E 151°46'0 0.0
2017-Sep-19 03:57S 32°53' E 151°46'0 0.0
2017-Sep-19 03:30S 32°53' E 151°46'0 0.0
2017-Sep-19 02:57S 32°53' E 151°46'0 0.0
2017-Sep-19 02:30S 32°53' E 151°46'0 0.0
2017-Sep-19 02:00S 32°53' E 151°46'0 0.0
2017-Sep-19 01:30S 32°53' E 151°46'0 0.0
2017-Sep-19 01:00S 32°53' E 151°46'0 0.0
2017-Sep-19 00:30S 32°53' E 151°46'0 0.0
2017-Sep-19 00:00S 32°53' E 151°46'0 0.0
2017-Sep-18 23:31S 32°53' E 151°46'1 2.4
2017-Sep-18 23:00S 32°54' E 151°46'3 5.7
2017-Sep-18 22:31S 32°55' E 151°50'5 9.8
2017-Sep-18 22:01S 32°59' E 151°52'4 7.3
2017-Sep-18 21:31S 33°01' E 151°56'4 8.9
2017-Sep-18 21:00S 33°04' E 152°00'510.2
2017-Sep-18 20:31S 33°07' E 152°05'612.0
2017-Sep-18 20:01S 33°11' E 152°11'612.6
2017-Sep-18 19:30S 33°15' E 152°16'613.0
2017-Sep-18 19:01S 33°19' E 152°23'612.8
2017-Sep-18 18:31S 33°23' E 152°29'612.5
2017-Sep-18 18:01S 33°26' E 152°35'2 3.4
2017-Sep-18 17:31S 33°27' E 152°36'2 3.1
2017-Sep-18 17:01S 33°26' E 152°35'2 3.2
2017-Sep-18 16:31S 33°25' E 152°34'2 3.3
2017-Sep-18 16:01S 33°23' E 152°33'2 3.2
2017-Sep-18 15:31S 33°22' E 152°32'2 3.6
2017-Sep-18 15:01S 33°20' E 152°31'2 3.4
2017-Sep-18 14:30S 33°19' E 152°30'2 3.2
2017-Sep-18 14:01S 33°17' E 152°29'2 3.1
2017-Sep-18 13:30S 33°16' E 152°29'3 2.8
2017-Sep-18 12:34S 33°13' E 152°28'0 2.8
2017-Sep-18 12:31S 33°13' E 152°28'1 2.9
2017-Sep-18 12:00S 33°12' E 152°27'1 2.6
2017-Sep-18 11:26S 33°10' E 152°27'1 2.5
2017-Sep-18 10:56S 33°09' E 152°26'1 2.5
2017-Sep-18 10:26S 33°08' E 152°26'2 2.5
2017-Sep-18 09:38S 33°06' E 152°26'0 2.4
2017-Sep-18 09:26S 33°06' E 152°25'1 2.2
2017-Sep-18 08:56S 33°05' E 152°25'1 2.2
2017-Sep-18 08:20S 33°03' E 152°25'1 2.1
2017-Sep-18 07:59S 33°03' E 152°24'1 2.2
2017-Sep-18 07:30S 33°02' E 152°25'612.6
2017-Sep-18 07:00S 33°07' E 152°29'612.4
2017-Sep-18 06:30S 33°13' E 152°32'612.4
2017-Sep-18 06:00S 33°19' E 152°34'2 1.1
2017-Sep-18 04:10S 33°17' E 152°33'1 2.0
2017-Sep-18 03:46S 33°16' E 152°33'12 1.9
2017-Sep-17 21:22S 33°06' E 152°26'1 1.3
2017-Sep-17 20:52S 33°05' E 152°26'1 1.3
2017-Sep-17 20:28S 33°05' E 152°25'1 1.3
2017-Sep-17 19:58S 33°04' E 152°25'1 1.4
2017-Sep-17 19:28S 33°03' E 152°25'1 1.3
2017-Sep-17 18:55S 33°03' E 152°24'1 1.2
2017-Sep-17 18:28S 33°02' E 152°24'1 1.1
2017-Sep-17 17:58S 33°02' E 152°24'0 0.8
2017-Sep-17 17:28S 33°01' E 152°24'0 0.7
2017-Sep-17 16:58S 33°01' E 152°24'0 0.4
2017-Sep-17 16:28S 33°01' E 152°24'0 0.3
2017-Sep-17 15:58S 33°01' E 152°24'0 0.4
2017-Sep-17 15:28S 33°01' E 152°24'0 0.5
2017-Sep-17 14:58S 33°00' E 152°23'0 0.6
2017-Sep-17 14:28S 33°00' E 152°23'0 0.2
2017-Sep-17 13:58S 33°00' E 152°23'0 0.3
2017-Sep-17 13:28S 33°00' E 152°23'0 0.3
2017-Sep-17 12:58S 33°00' E 152°23'0 0.4
2017-Sep-17 12:28S 33°00' E 152°23'0 0.5
2017-Sep-17 11:58S 33°01' E 152°22'0 0.5
2017-Sep-17 11:28S 33°01' E 152°22'0 0.6
2017-Sep-17 10:55S 33°01' E 152°22'0 0.6
2017-Sep-17 10:28S 33°01' E 152°22'0 0.6
2017-Sep-17 09:43S 33°01' E 152°22'1 4.7
2017-Sep-17 09:30S 33°00' E 152°21'612.7
2017-Sep-17 09:00S 32°59' E 152°14'3 6.2
2017-Sep-17 08:28S 32°59' E 152°10'1 1.2
2017-Sep-17 07:58S 32°59' E 152°10'1 1.4
2017-Sep-17 07:28S 32°60' E 152°11'1 1.4
2017-Sep-17 06:58S 33°00' E 152°12'1 1.5
2017-Sep-17 06:28S 33°00' E 152°13'1 1.6
2017-Sep-17 05:58S 33°01' E 152°13'1 1.5
2017-Sep-17 05:28S 33°01' E 152°14'1 1.6
2017-Sep-17 04:58S 33°02' E 152°15'1 1.5
2017-Sep-17 04:28S 33°02' E 152°16'1 1.5
2017-Sep-17 03:59S 33°03' E 152°16'4 7.7
2017-Sep-17 03:30S 32°60' E 152°19'510.6
2017-Sep-17 03:00S 32°56' E 152°23'2 3.7
2017-Sep-17 02:30S 32°54' E 152°25'1 1.4
2017-Sep-17 02:00S 32°55' E 152°25'1 1.7
2017-Sep-17 01:30S 32°56' E 152°26'1 1.7
2017-Sep-17 01:00S 32°56' E 152°26'1 1.7
2017-Sep-17 00:30S 32°57' E 152°27'1 1.8
2017-Sep-17 00:00S 32°58' E 152°27'1 1.5
2017-Sep-16 23:30S 32°59' E 152°28'1 1.6
2017-Sep-16 23:00S 32°59' E 152°28'1 1.6
2017-Sep-16 22:30S 33°00' E 152°29'1 1.7
2017-Sep-16 21:57S 33°01' E 152°29'1 1.7
2017-Sep-16 21:30S 33°02' E 152°30'1 1.9
2017-Sep-16 21:00S 33°02' E 152°30'1 1.9
2017-Sep-16 20:30S 33°03' E 152°30'1 2.0
2017-Sep-16 20:00S 33°04' E 152°31'4 1.7
2017-Sep-16 17:22S 33°07' E 152°35'611.7
2017-Sep-16 16:50S 33°07' E 152°42'3 0.3
2017-Sep-16 04:32S 33°08' E 152°39'0 1.0
2017-Sep-16 04:20S 33°08' E 152°39'1 1.3
2017-Sep-16 03:50S 33°09' E 152°38'0 1.2
2017-Sep-16 03:29S 33°09' E 152°38'1 1.4
2017-Sep-16 02:59S 33°09' E 152°37'5 1.2
2017-Sep-15 23:15S 33°08' E 152°31'1 1.9
2017-Sep-15 22:57S 33°08' E 152°31'1 1.8
2017-Sep-15 22:27S 33°07' E 152°30'1 1.8
2017-Sep-15 22:00S 33°07' E 152°29'1 1.8
2017-Sep-15 21:27S 33°06' E 152°28'1 1.6
2017-Sep-15 21:00S 33°06' E 152°27'1 1.5
2017-Sep-15 20:30S 33°06' E 152°26'1 1.6
2017-Sep-15 19:45S 33°05' E 152°25'0 1.6
2017-Sep-15 19:27S 33°05' E 152°25'1 1.5
2017-Sep-15 18:57S 33°05' E 152°24'1 1.3
2017-Sep-15 18:24S 33°05' E 152°23'1 1.3
2017-Sep-15 18:00S 33°05' E 152°22'1 1.2
2017-Sep-15 17:21S 33°05' E 152°21'0 1.1
2017-Sep-15 17:00S 33°05' E 152°21'1 1.0
2017-Sep-15 16:30S 33°05' E 152°20'1 1.1
2017-Sep-15 15:57S 33°04' E 152°20'2 3.8
2017-Sep-15 15:30S 33°03' E 152°18'713.2
2017-Sep-15 15:00S 32°60' E 152°12'713.0
2017-Sep-15 14:30S 32°58' E 152°04'5 9.2
2017-Sep-15 14:00S 32°56' E 151°59'611.4
2017-Sep-15 13:30S 32°54' E 152°06'612.8
2017-Sep-15 13:00S 32°51' E 152°13'713.1
2017-Sep-15 12:30S 32°49' E 152°20'713.1
2017-Sep-15 12:00S 32°47' E 152°28'612.9
2017-Sep-15 11:30S 32°44' E 152°34'713.3
2017-Sep-15 11:00S 32°38' E 152°38'714.1
2017-Sep-15 10:30S 32°32' E 152°41'714.0
2017-Sep-15 10:01S 32°25' E 152°44'25812.7
2017-Sep-14 13:43S 28°13' E 153°47'313.4
2017-Sep-14 13:30S 28°10' E 153°48'713.1
2017-Sep-14 12:58S 28°03' E 153°48'613.6
2017-Sep-14 12:30S 27°56' E 153°48'714.1
2017-Sep-14 12:00S 27°49' E 153°48'714.0
2017-Sep-14 11:30S 27°42' E 153°48'713.1
2017-Sep-14 11:00S 27°36' E 153°50'713.2
2017-Sep-14 10:30S 27°31' E 153°55'2911.9
2017-Sep-14 08:05S 27°02' E 153°53'  

Dump ship's entire track history